Terminal Aerodrome Forecast
Issued by NWS

Home | Current Version | Previous Version | Text Only | Print | Product List | Glossary Off
Versions: 1 2 3 4 5 6 7 8 9 10 11 12 13 14 15 16 17 18 19 20 21 22 23 24 25 26 27 28 29 30 31 32 33 34 35 36 37 38 39 40 41 42 43 44 45 46 47
000 FTUS41 KBOX 231407 AAA TAFMHT TAF AMD KMHT 231407Z 2314/2412 22005KT P6SM SCT050 BKN100 FM231600 24005KT P6SM SCT050 BKN100 FM232300 00000KT P6SM BKN080 FM240800 00000KT P6SM -RA BKN090 FM241000 11005KT 5SM -RA BR OVC010 WS020/17035KT=

USA.gov is the U.S. government's official web portal to all federal, state and local government web resources and services.